sensor_id;sensor_type;location;lat;lon;timestamp;temperature;humidity
35633;DHT22;21754;48.216;-1.628;2022-07-29T00:01:48;22.70;99.90
35633;DHT22;21754;48.216;-1.628;2022-07-29T00:04:13;22.70;99.90
35633;DHT22;21754;48.216;-1.628;2022-07-29T00:06:39;22.70;99.90
35633;DHT22;21754;48.216;-1.628;2022-07-29T00:09:05;22.60;99.90
35633;DHT22;21754;48.216;-1.628;2022-07-29T00:11:31;22.50;99.90
35633;DHT22;21754;48.216;-1.628;2022-07-29T00:13:56;22.50;99.90
35633;DHT22;21754;48.216;-1.628;2022-07-29T00:16:22;22.50;99.90
35633;DHT22;21754;48.216;-1.628;2022-07-29T00:18:48;22.50;99.90
35633;DHT22;21754;48.216;-1.628;2022-07-29T00:21:14;22.50;99.90
35633;DHT22;21754;48.216;-1.628;2022-07-29T00:23:39;22.40;99.90
35633;DHT22;21754;48.216;-1.628;2022-07-29T00:26:05;22.30;99.90
35633;DHT22;21754;48.216;-1.628;2022-07-29T00:28:31;22.30;99.90
35633;DHT22;21754;48.216;-1.628;2022-07-29T00:30:56;22.40;99.90
35633;DHT22;21754;48.216;-1.628;2022-07-29T00:33:22;22.30;99.90
35633;DHT22;21754;48.216;-1.628;2022-07-29T00:35:48;22.40;99.90
35633;DHT22;21754;48.216;-1.628;2022-07-29T00:38:16;22.40;99.90
35633;DHT22;21754;48.216;-1.628;2022-07-29T00:40:42;22.40;99.90
35633;DHT22;21754;48.216;-1.628;2022-07-29T00:43:08;22.40;99.90
35633;DHT22;21754;48.216;-1.628;2022-07-29T00:45:34;22.50;99.90
35633;DHT22;21754;48.216;-1.628;2022-07-29T00:48:00;22.50;99.90
35633;DHT22;21754;48.216;-1.628;2022-07-29T00:50:26;22.40;99.90
35633;DHT22;21754;48.216;-1.628;2022-07-29T00:52:52;22.40;99.90
35633;DHT22;21754;48.216;-1.628;2022-07-29T00:55:18;22.50;99.90
35633;DHT22;21754;48.216;-1.628;2022-07-29T00:57:45;22.50;99.90
35633;DHT22;21754;48.216;-1.628;2022-07-29T01:00:17;22.40;99.90
35633;DHT22;21754;48.216;-1.628;2022-07-29T01:02:44;22.30;99.90
35633;DHT22;21754;48.216;-1.628;2022-07-29T01:05:11;22.30;99.90
35633;DHT22;21754;48.216;-1.628;2022-07-29T01:07:39;22.30;99.90
35633;DHT22;21754;48.216;-1.628;2022-07-29T01:10:06;22.20;99.90
35633;DHT22;21754;48.216;-1.628;2022-07-29T01:12:34;22.30;99.90
35633;DHT22;21754;48.216;-1.628;2022-07-29T01:15:02;22.20;99.90
35633;DHT22;21754;48.216;-1.628;2022-07-29T01:18:11;22.30;99.90
35633;DHT22;21754;48.216;-1.628;2022-07-29T01:21:07;22.30;99.90
35633;DHT22;21754;48.216;-1.628;2022-07-29T01:26:55;22.30;99.90
35633;DHT22;21754;48.216;-1.628;2022-07-29T01:29:49;22.30;99.90
35633;DHT22;21754;48.216;-1.628;2022-07-29T01:32:21;22.30;99.90
35633;DHT22;21754;48.216;-1.628;2022-07-29T01:34:54;22.30;99.90
35633;DHT22;21754;48.216;-1.628;2022-07-29T01:39:59;22.40;99.90
35633;DHT22;21754;48.216;-1.628;2022-07-29T01:42:43;22.30;99.90
35633;DHT22;21754;48.216;-1.628;2022-07-29T01:45:20;22.30;99.90
35633;DHT22;21754;48.216;-1.628;2022-07-29T01:48:18;22.20;99.90
35633;DHT22;21754;48.216;-1.628;2022-07-29T01:51:02;22.10;99.90
35633;DHT22;21754;48.216;-1.628;2022-07-29T01:53:34;22.20;99.90
35633;DHT22;21754;48.216;-1.628;2022-07-29T01:56:02;22.20;99.90
35633;DHT22;21754;48.216;-1.628;2022-07-29T01:58:29;22.20;99.90
35633;DHT22;21754;48.216;-1.628;2022-07-29T02:00:57;22.20;99.90
35633;DHT22;21754;48.216;-1.628;2022-07-29T02:03:24;22.20;99.90
35633;DHT22;21754;48.216;-1.628;2022-07-29T02:05:51;22.30;99.90
35633;DHT22;21754;48.216;-1.628;2022-07-29T02:08:18;22.30;99.90
35633;DHT22;21754;48.216;-1.628;2022-07-29T02:10:45;22.30;99.90
35633;DHT22;21754;48.216;-1.628;2022-07-29T02:13:13;22.40;99.90
35633;DHT22;21754;48.216;-1.628;2022-07-29T02:15:42;22.40;99.90
35633;DHT22;21754;48.216;-1.628;2022-07-29T02:18:14;22.40;99.90
35633;DHT22;21754;48.216;-1.628;2022-07-29T02:20:49;22.40;99.90
35633;DHT22;21754;48.216;-1.628;2022-07-29T02:23:19;22.50;99.90
35633;DHT22;21754;48.216;-1.628;2022-07-29T02:25:48;22.50;99.90
35633;DHT22;21754;48.216;-1.628;2022-07-29T02:28:16;22.50;99.90
35633;DHT22;21754;48.216;-1.628;2022-07-29T02:30:42;22.50;99.90
35633;DHT22;21754;48.216;-1.628;2022-07-29T02:33:10;22.60;99.90
35633;DHT22;21754;48.216;-1.628;2022-07-29T02:35:38;22.50;99.90
35633;DHT22;21754;48.216;-1.628;2022-07-29T02:38:06;22.50;99.90
35633;DHT22;21754;48.216;-1.628;2022-07-29T02:40:51;22.40;99.90
35633;DHT22;21754;48.216;-1.628;2022-07-29T02:43:19;22.30;99.90
35633;DHT22;21754;48.216;-1.628;2022-07-29T02:45:47;22.20;99.90
35633;DHT22;21754;48.216;-1.628;2022-07-29T02:48:16;22.30;99.90
35633;DHT22;21754;48.216;-1.628;2022-07-29T02:50:50;22.20;99.90
35633;DHT22;21754;48.216;-1.628;2022-07-29T02:53:19;22.20;99.90
35633;DHT22;21754;48.216;-1.628;2022-07-29T02:55:53;22.20;99.90
35633;DHT22;21754;48.216;-1.628;2022-07-29T02:58:46;22.20;99.90
35633;DHT22;21754;48.216;-1.628;2022-07-29T03:01:17;22.20;99.90
35633;DHT22;21754;48.216;-1.628;2022-07-29T03:03:45;22.20;99.90
35633;DHT22;21754;48.216;-1.628;2022-07-29T03:06:13;22.20;99.90
35633;DHT22;21754;48.216;-1.628;2022-07-29T03:08:40;22.20;99.90
35633;DHT22;21754;48.216;-1.628;2022-07-29T03:11:08;22.20;99.90
35633;DHT22;21754;48.216;-1.628;2022-07-29T03:13:35;22.30;99.90
35633;DHT22;21754;48.216;-1.628;2022-07-29T03:16:01;22.40;99.90
35633;DHT22;21754;48.216;-1.628;2022-07-29T03:18:27;22.40;99.90
35633;DHT22;21754;48.216;-1.628;2022-07-29T03:20:52;22.30;99.90
35633;DHT22;21754;48.216;-1.628;2022-07-29T03:23:22;22.30;99.90
35633;DHT22;21754;48.216;-1.628;2022-07-29T03:25:49;22.30;99.90
35633;DHT22;21754;48.216;-1.628;2022-07-29T03:28:15;22.20;99.90
35633;DHT22;21754;48.216;-1.628;2022-07-29T03:30:41;22.10;99.90
35633;DHT22;21754;48.216;-1.628;2022-07-29T03:33:06;22.10;99.90
35633;DHT22;21754;48.216;-1.628;2022-07-29T03:35:32;22.00;99.90
35633;DHT22;21754;48.216;-1.628;2022-07-29T03:37:58;22.10;99.90
35633;DHT22;21754;48.216;-1.628;2022-07-29T03:40:42;22.10;99.90
35633;DHT22;21754;48.216;-1.628;2022-07-29T03:43:09;22.10;99.90
35633;DHT22;21754;48.216;-1.628;2022-07-29T03:45:36;22.20;99.90
35633;DHT22;21754;48.216;-1.628;2022-07-29T03:48:08;22.20;99.90
35633;DHT22;21754;48.216;-1.628;2022-07-29T03:50:35;22.30;99.90
35633;DHT22;21754;48.216;-1.628;2022-07-29T03:53:02;22.30;99.90
35633;DHT22;21754;48.216;-1.628;2022-07-29T03:55:29;22.20;99.90
35633;DHT22;21754;48.216;-1.628;2022-07-29T03:57:58;22.20;99.90
35633;DHT22;21754;48.216;-1.628;2022-07-29T04:00:25;22.20;99.90
35633;DHT22;21754;48.216;-1.628;2022-07-29T04:02:52;22.30;99.90
35633;DHT22;21754;48.216;-1.628;2022-07-29T04:05:18;22.20;99.90
35633;DHT22;21754;48.216;-1.628;2022-07-29T04:07:45;22.20;99.90
35633;DHT22;21754;48.216;-1.628;2022-07-29T04:10:11;22.10;99.90
35633;DHT22;21754;48.216;-1.628;2022-07-29T04:12:37;22.10;99.90
35633;DHT22;21754;48.216;-1.628;2022-07-29T04:15:03;22.10;99.90
35633;DHT22;21754;48.216;-1.628;2022-07-29T04:17:29;22.20;99.90
35633;DHT22;21754;48.216;-1.628;2022-07-29T04:19:55;22.20;99.90
35633;DHT22;21754;48.216;-1.628;2022-07-29T04:22:20;22.20;99.90
35633;DHT22;21754;48.216;-1.628;2022-07-29T04:24:46;22.30;99.90
35633;DHT22;21754;48.216;-1.628;2022-07-29T04:27:12;22.30;99.90
35633;DHT22;21754;48.216;-1.628;2022-07-29T04:29:37;22.30;99.90
35633;DHT22;21754;48.216;-1.628;2022-07-29T04:32:03;22.30;99.90
35633;DHT22;21754;48.216;-1.628;2022-07-29T04:34:29;22.30;99.90
35633;DHT22;21754;48.216;-1.628;2022-07-29T04:36:55;22.30;99.90
35633;DHT22;21754;48.216;-1.628;2022-07-29T04:39:20;22.20;99.90
35633;DHT22;21754;48.216;-1.628;2022-07-29T04:41:46;22.20;99.90
35633;DHT22;21754;48.216;-1.628;2022-07-29T04:44:12;22.20;99.90
35633;DHT22;21754;48.216;-1.628;2022-07-29T04:46:38;22.20;99.90
35633;DHT22;21754;48.216;-1.628;2022-07-29T04:49:04;22.20;99.90
35633;DHT22;21754;48.216;-1.628;2022-07-29T04:51:30;22.20;99.90
35633;DHT22;21754;48.216;-1.628;2022-07-29T04:53:55;22.10;99.90
35633;DHT22;21754;48.216;-1.628;2022-07-29T04:56:21;22.10;99.90
35633;DHT22;21754;48.216;-1.628;2022-07-29T04:58:47;22.10;99.90
35633;DHT22;21754;48.216;-1.628;2022-07-29T05:01:13;22.10;99.90
35633;DHT22;21754;48.216;-1.628;2022-07-29T05:03:39;22.10;99.90
35633;DHT22;21754;48.216;-1.628;2022-07-29T05:06:05;22.10;99.90
35633;DHT22;21754;48.216;-1.628;2022-07-29T05:08:31;22.10;99.90
35633;DHT22;21754;48.216;-1.628;2022-07-29T05:10:56;22.20;99.90
35633;DHT22;21754;48.216;-1.628;2022-07-29T05:13:22;22.10;99.90
35633;DHT22;21754;48.216;-1.628;2022-07-29T05:15:48;22.20;99.90
35633;DHT22;21754;48.216;-1.628;2022-07-29T05:18:13;22.20;99.90
35633;DHT22;21754;48.216;-1.628;2022-07-29T05:20:39;22.20;99.90
35633;DHT22;21754;48.216;-1.628;2022-07-29T05:23:05;22.20;99.90
35633;DHT22;21754;48.216;-1.628;2022-07-29T05:25:30;22.20;99.90
35633;DHT22;21754;48.216;-1.628;2022-07-29T05:27:57;22.30;99.90
35633;DHT22;21754;48.216;-1.628;2022-07-29T05:30:23;22.30;99.90
35633;DHT22;21754;48.216;-1.628;2022-07-29T05:32:49;22.30;99.90
35633;DHT22;21754;48.216;-1.628;2022-07-29T05:35:15;22.40;99.90
35633;DHT22;21754;48.216;-1.628;2022-07-29T05:37:41;22.40;99.90
35633;DHT22;21754;48.216;-1.628;2022-07-29T05:40:07;22.50;99.90
35633;DHT22;21754;48.216;-1.628;2022-07-29T05:42:33;22.50;99.90
35633;DHT22;21754;48.216;-1.628;2022-07-29T05:44:59;22.60;99.90
35633;DHT22;21754;48.216;-1.628;2022-07-29T05:47:25;22.60;99.90
35633;DHT22;21754;48.216;-1.628;2022-07-29T05:49:51;22.60;99.90
35633;DHT22;21754;48.216;-1.628;2022-07-29T05:52:17;22.60;99.90
35633;DHT22;21754;48.216;-1.628;2022-07-29T05:54:43;22.60;99.90
35633;DHT22;21754;48.216;-1.628;2022-07-29T05:57:15;22.60;99.90
35633;DHT22;21754;48.216;-1.628;2022-07-29T05:59:40;22.60;99.90
35633;DHT22;21754;48.216;-1.628;2022-07-29T06:02:06;22.80;99.90
35633;DHT22;21754;48.216;-1.628;2022-07-29T06:04:32;22.80;99.90
35633;DHT22;21754;48.216;-1.628;2022-07-29T06:06:58;22.90;99.90
35633;DHT22;21754;48.216;-1.628;2022-07-29T06:09:24;23.00;99.90
35633;DHT22;21754;48.216;-1.628;2022-07-29T06:11:51;23.00;99.90
35633;DHT22;21754;48.216;-1.628;2022-07-29T06:14:17;23.10;99.90
35633;DHT22;21754;48.216;-1.628;2022-07-29T06:16:43;23.20;99.90
35633;DHT22;21754;48.216;-1.628;2022-07-29T06:19:09;23.20;99.90
35633;DHT22;21754;48.216;-1.628;2022-07-29T06:21:34;23.30;99.90
35633;DHT22;21754;48.216;-1.628;2022-07-29T06:24:00;23.40;99.90
35633;DHT22;21754;48.216;-1.628;2022-07-29T06:26:25;23.50;99.90
35633;DHT22;21754;48.216;-1.628;2022-07-29T06:28:51;23.40;99.90
35633;DHT22;21754;48.216;-1.628;2022-07-29T06:31:17;23.40;99.90
35633;DHT22;21754;48.216;-1.628;2022-07-29T06:33:42;23.50;99.90
35633;DHT22;21754;48.216;-1.628;2022-07-29T06:36:08;23.50;99.90
35633;DHT22;21754;48.216;-1.628;2022-07-29T06:38:34;23.50;99.90
35633;DHT22;21754;48.216;-1.628;2022-07-29T06:41:00;23.50;99.90
35633;DHT22;21754;48.216;-1.628;2022-07-29T06:46:03;23.60;99.90
35633;DHT22;21754;48.216;-1.628;2022-07-29T06:48:30;23.60;99.90
35633;DHT22;21754;48.216;-1.628;2022-07-29T06:50:55;23.70;99.90
35633;DHT22;21754;48.216;-1.628;2022-07-29T06:53:21;23.70;99.90
35633;DHT22;21754;48.216;-1.628;2022-07-29T06:55:47;23.80;99.90
35633;DHT22;21754;48.216;-1.628;2022-07-29T06:58:13;24.00;99.90
35633;DHT22;21754;48.216;-1.628;2022-07-29T07:00:41;24.10;99.90
35633;DHT22;21754;48.216;-1.628;2022-07-29T07:03:07;24.20;99.90
35633;DHT22;21754;48.216;-1.628;2022-07-29T07:05:33;24.20;99.90
35633;DHT22;21754;48.216;-1.628;2022-07-29T07:07:58;24.30;99.90
35633;DHT22;21754;48.216;-1.628;2022-07-29T07:10:24;24.30;99.90
35633;DHT22;21754;48.216;-1.628;2022-07-29T07:12:50;24.40;99.90
35633;DHT22;21754;48.216;-1.628;2022-07-29T07:15:16;24.50;99.90
35633;DHT22;21754;48.216;-1.628;2022-07-29T07:17:41;24.60;99.90
35633;DHT22;21754;48.216;-1.628;2022-07-29T07:20:07;24.70;99.90
35633;DHT22;21754;48.216;-1.628;2022-07-29T07:22:33;24.80;99.90
35633;DHT22;21754;48.216;-1.628;2022-07-29T07:24:58;24.90;99.90
35633;DHT22;21754;48.216;-1.628;2022-07-29T07:27:24;25.00;99.90
35633;DHT22;21754;48.216;-1.628;2022-07-29T07:29:50;25.10;99.90
35633;DHT22;21754;48.216;-1.628;2022-07-29T07:32:15;25.20;99.90
35633;DHT22;21754;48.216;-1.628;2022-07-29T07:34:44;25.40;99.90
35633;DHT22;21754;48.216;-1.628;2022-07-29T07:37:10;25.50;99.90
35633;DHT22;21754;48.216;-1.628;2022-07-29T07:39:36;25.60;99.90
35633;DHT22;21754;48.216;-1.628;2022-07-29T07:42:02;25.70;99.90
35633;DHT22;21754;48.216;-1.628;2022-07-29T07:44:28;25.70;99.90
35633;DHT22;21754;48.216;-1.628;2022-07-29T07:46:53;25.80;99.90
35633;DHT22;21754;48.216;-1.628;2022-07-29T07:49:19;25.90;99.90
35633;DHT22;21754;48.216;-1.628;2022-07-29T07:51:44;26.00;99.90
35633;DHT22;21754;48.216;-1.628;2022-07-29T07:54:10;26.10;99.90
35633;DHT22;21754;48.216;-1.628;2022-07-29T07:56:36;26.20;99.90
35633;DHT22;21754;48.216;-1.628;2022-07-29T07:59:01;26.10;99.90
35633;DHT22;21754;48.216;-1.628;2022-07-29T08:01:27;26.30;99.90
35633;DHT22;21754;48.216;-1.628;2022-07-29T08:03:53;26.30;99.90
35633;DHT22;21754;48.216;-1.628;2022-07-29T08:06:18;26.40;99.90
35633;DHT22;21754;48.216;-1.628;2022-07-29T08:08:44;26.40;99.90
35633;DHT22;21754;48.216;-1.628;2022-07-29T08:11:10;26.50;99.90
35633;DHT22;21754;48.216;-1.628;2022-07-29T08:13:36;26.50;99.90
35633;DHT22;21754;48.216;-1.628;2022-07-29T08:16:03;26.50;99.90
35633;DHT22;21754;48.216;-1.628;2022-07-29T08:18:39;26.50;99.90
35633;DHT22;21754;48.216;-1.628;2022-07-29T08:21:05;26.60;99.90
35633;DHT22;21754;48.216;-1.628;2022-07-29T08:23:31;26.70;99.90
35633;DHT22;21754;48.216;-1.628;2022-07-29T08:26:06;26.80;99.90
35633;DHT22;21754;48.216;-1.628;2022-07-29T08:28:39;27.00;99.90
35633;DHT22;21754;48.216;-1.628;2022-07-29T08:31:06;27.00;99.90
35633;DHT22;21754;48.216;-1.628;2022-07-29T08:33:32;27.10;99.90
35633;DHT22;21754;48.216;-1.628;2022-07-29T08:35:57;27.10;99.90
35633;DHT22;21754;48.216;-1.628;2022-07-29T08:38:23;27.20;99.90
35633;DHT22;21754;48.216;-1.628;2022-07-29T08:40:49;27.20;99.60
35633;DHT22;21754;48.216;-1.628;2022-07-29T08:43:14;27.30;99.90
35633;DHT22;21754;48.216;-1.628;2022-07-29T08:48:14;27.50;99.60
35633;DHT22;21754;48.216;-1.628;2022-07-29T08:50:42;27.60;99.90
35633;DHT22;21754;48.216;-1.628;2022-07-29T08:53:11;27.70;99.50
35633;DHT22;21754;48.216;-1.628;2022-07-29T08:55:40;27.80;97.40
35633;DHT22;21754;48.216;-1.628;2022-07-29T08:58:07;27.70;98.20
35633;DHT22;21754;48.216;-1.628;2022-07-29T09:00:33;27.70;98.70
35633;DHT22;21754;48.216;-1.628;2022-07-29T09:03:02;27.70;99.90
35633;DHT22;21754;48.216;-1.628;2022-07-29T09:05:30;27.90;99.90
35633;DHT22;21754;48.216;-1.628;2022-07-29T09:07:56;28.00;97.00
35633;DHT22;21754;48.216;-1.628;2022-07-29T09:10:22;28.10;97.70
35633;DHT22;21754;48.216;-1.628;2022-07-29T09:12:48;28.10;95.30
35633;DHT22;21754;48.216;-1.628;2022-07-29T09:15:14;28.00;95.90
35633;DHT22;21754;48.216;-1.628;2022-07-29T09:17:48;28.00;96.40
35633;DHT22;21754;48.216;-1.628;2022-07-29T09:20:19;28.10;97.10
35633;DHT22;21754;48.216;-1.628;2022-07-29T09:22:46;28.20;97.70
35633;DHT22;21754;48.216;-1.628;2022-07-29T09:25:33;28.30;95.20
35633;DHT22;21754;48.216;-1.628;2022-07-29T09:28:10;28.40;96.80
35633;DHT22;21754;48.216;-1.628;2022-07-29T09:30:53;28.60;97.10
35633;DHT22;21754;48.216;-1.628;2022-07-29T09:33:20;28.70;95.30
35633;DHT22;21754;48.216;-1.628;2022-07-29T09:35:46;28.50;95.00
35633;DHT22;21754;48.216;-1.628;2022-07-29T09:38:23;28.60;96.20
35633;DHT22;21754;48.216;-1.628;2022-07-29T09:40:59;28.70;96.50
35633;DHT22;21754;48.216;-1.628;2022-07-29T09:43:25;28.90;94.40
35633;DHT22;21754;48.216;-1.628;2022-07-29T09:45:50;29.10;96.80
35633;DHT22;21754;48.216;-1.628;2022-07-29T09:48:18;29.30;97.20
35633;DHT22;21754;48.216;-1.628;2022-07-29T09:50:46;29.50;96.20
35633;DHT22;21754;48.216;-1.628;2022-07-29T09:55:55;30.00;96.50
35633;DHT22;21754;48.216;-1.628;2022-07-29T09:58:21;30.20;94.80
35633;DHT22;21754;48.216;-1.628;2022-07-29T10:00:49;30.20;93.00
35633;DHT22;21754;48.216;-1.628;2022-07-29T10:03:16;30.20;94.40
35633;DHT22;21754;48.216;-1.628;2022-07-29T10:05:43;30.20;93.70
35633;DHT22;21754;48.216;-1.628;2022-07-29T10:08:10;30.40;93.50
35633;DHT22;21754;48.216;-1.628;2022-07-29T10:10:40;30.40;94.20
35633;DHT22;21754;48.216;-1.628;2022-07-29T10:13:12;30.50;93.30
35633;DHT22;21754;48.216;-1.628;2022-07-29T10:15:42;30.40;91.90
35633;DHT22;21754;48.216;-1.628;2022-07-29T10:18:10;30.40;93.10
35633;DHT22;21754;48.216;-1.628;2022-07-29T10:20:37;30.50;93.60
35633;DHT22;21754;48.216;-1.628;2022-07-29T10:23:03;30.60;94.10
35633;DHT22;21754;48.216;-1.628;2022-07-29T10:25:29;30.70;90.80
35633;DHT22;21754;48.216;-1.628;2022-07-29T10:27:56;30.70;91.10
35633;DHT22;21754;48.216;-1.628;2022-07-29T10:30:23;30.60;90.30
35633;DHT22;21754;48.216;-1.628;2022-07-29T10:41:14;30.80;92.40
35633;DHT22;21754;48.216;-1.628;2022-07-29T10:46:25;30.70;86.50
35633;DHT22;21754;48.216;-1.628;2022-07-29T10:59:52;30.80;88.60
35633;DHT22;21754;48.216;-1.628;2022-07-29T11:07:32;30.70;87.60
35633;DHT22;21754;48.216;-1.628;2022-07-29T11:23:30;30.80;84.20
35633;DHT22;21754;48.216;-1.628;2022-07-29T11:26:18;30.80;90.30
35633;DHT22;21754;48.216;-1.628;2022-07-29T11:31:38;30.90;87.60
35633;DHT22;21754;48.216;-1.628;2022-07-29T11:34:27;31.00;87.00
35633;DHT22;21754;48.216;-1.628;2022-07-29T11:45:16;31.30;87.10
35633;DHT22;21754;48.216;-1.628;2022-07-29T11:50:13;31.40;83.10
35633;DHT22;21754;48.216;-1.628;2022-07-29T11:52:44;31.50;83.30
35633;DHT22;21754;48.216;-1.628;2022-07-29T11:55:14;31.50;81.30
35633;DHT22;21754;48.216;-1.628;2022-07-29T12:00:32;31.20;82.30
35633;DHT22;21754;48.216;-1.628;2022-07-29T12:03:01;31.20;81.50
35633;DHT22;21754;48.216;-1.628;2022-07-29T12:05:45;31.00;82.30
35633;DHT22;21754;48.216;-1.628;2022-07-29T12:08:19;31.00;81.10
35633;DHT22;21754;48.216;-1.628;2022-07-29T12:10:48;30.90;81.10
35633;DHT22;21754;48.216;-1.628;2022-07-29T12:13:15;30.90;81.80
35633;DHT22;21754;48.216;-1.628;2022-07-29T12:15:41;30.90;81.40
35633;DHT22;21754;48.216;-1.628;2022-07-29T12:18:17;30.90;82.20
35633;DHT22;21754;48.216;-1.628;2022-07-29T12:20:43;31.00;82.30
35633;DHT22;21754;48.216;-1.628;2022-07-29T12:23:10;31.10;83.80
35633;DHT22;21754;48.216;-1.628;2022-07-29T12:25:40;31.30;80.80
35633;DHT22;21754;48.216;-1.628;2022-07-29T12:28:08;31.30;83.20
35633;DHT22;21754;48.216;-1.628;2022-07-29T12:30:45;31.20;80.10
35633;DHT22;21754;48.216;-1.628;2022-07-29T12:33:17;31.10;79.60
35633;DHT22;21754;48.216;-1.628;2022-07-29T12:35:45;31.10;82.10
35633;DHT22;21754;48.216;-1.628;2022-07-29T12:38:11;31.20;80.70
35633;DHT22;21754;48.216;-1.628;2022-07-29T12:40:38;31.20;79.90
35633;DHT22;21754;48.216;-1.628;2022-07-29T12:45:36;31.10;82.10
35633;DHT22;21754;48.216;-1.628;2022-07-29T12:48:02;31.30;79.90
35633;DHT22;21754;48.216;-1.628;2022-07-29T12:50:28;31.40;79.20
35633;DHT22;21754;48.216;-1.628;2022-07-29T12:52:54;31.50;81.80
35633;DHT22;21754;48.216;-1.628;2022-07-29T12:55:46;31.40;79.30
35633;DHT22;21754;48.216;-1.628;2022-07-29T12:58:31;31.40;80.70
35633;DHT22;21754;48.216;-1.628;2022-07-29T13:01:09;31.20;80.40
35633;DHT22;21754;48.216;-1.628;2022-07-29T13:08:59;31.60;82.20
35633;DHT22;21754;48.216;-1.628;2022-07-29T13:11:39;31.80;81.70
35633;DHT22;21754;48.216;-1.628;2022-07-29T13:14:06;31.90;82.90
35633;DHT22;21754;48.216;-1.628;2022-07-29T13:16:32;32.00;80.00
35633;DHT22;21754;48.216;-1.628;2022-07-29T13:19:11;32.10;81.30
35633;DHT22;21754;48.216;-1.628;2022-07-29T13:21:38;32.20;82.30
35633;DHT22;21754;48.216;-1.628;2022-07-29T13:24:07;32.20;78.60
35633;DHT22;21754;48.216;-1.628;2022-07-29T13:26:34;32.20;78.70
35633;DHT22;21754;48.216;-1.628;2022-07-29T13:29:00;32.30;77.80
35633;DHT22;21754;48.216;-1.628;2022-07-29T13:31:26;32.40;75.30
35633;DHT22;21754;48.216;-1.628;2022-07-29T13:33:51;32.50;78.80
35633;DHT22;21754;48.216;-1.628;2022-07-29T13:36:17;32.60;78.70
35633;DHT22;21754;48.216;-1.628;2022-07-29T13:38:43;32.60;76.20
35633;DHT22;21754;48.216;-1.628;2022-07-29T13:41:08;32.60;77.90
35633;DHT22;21754;48.216;-1.628;2022-07-29T13:43:34;32.60;73.60
35633;DHT22;21754;48.216;-1.628;2022-07-29T13:46:00;32.50;74.00
35633;DHT22;21754;48.216;-1.628;2022-07-29T13:48:25;32.40;75.90
35633;DHT22;21754;48.216;-1.628;2022-07-29T13:50:52;32.40;77.30
35633;DHT22;21754;48.216;-1.628;2022-07-29T13:53:18;32.50;76.80
35633;DHT22;21754;48.216;-1.628;2022-07-29T13:55:44;32.40;75.30
35633;DHT22;21754;48.216;-1.628;2022-07-29T13:58:09;32.40;73.30
35633;DHT22;21754;48.216;-1.628;2022-07-29T14:00:35;32.20;75.90
35633;DHT22;21754;48.216;-1.628;2022-07-29T14:03:00;32.20;76.10
35633;DHT22;21754;48.216;-1.628;2022-07-29T14:05:26;32.30;76.40
35633;DHT22;21754;48.216;-1.628;2022-07-29T14:07:51;32.30;74.10
35633;DHT22;21754;48.216;-1.628;2022-07-29T14:10:17;32.20;76.00
35633;DHT22;21754;48.216;-1.628;2022-07-29T14:12:43;32.20;76.60
35633;DHT22;21754;48.216;-1.628;2022-07-29T14:15:08;32.20;76.50
35633;DHT22;21754;48.216;-1.628;2022-07-29T14:17:34;32.10;76.80
35633;DHT22;21754;48.216;-1.628;2022-07-29T14:20:00;32.00;77.80
35633;DHT22;21754;48.216;-1.628;2022-07-29T14:22:26;32.10;78.30
35633;DHT22;21754;48.216;-1.628;2022-07-29T14:24:51;32.30;77.00
35633;DHT22;21754;48.216;-1.628;2022-07-29T14:27:17;32.50;75.40
35633;DHT22;21754;48.216;-1.628;2022-07-29T14:29:43;32.50;74.70
35633;DHT22;21754;48.216;-1.628;2022-07-29T14:32:09;32.70;74.20
35633;DHT22;21754;48.216;-1.628;2022-07-29T14:34:40;32.70;73.50
35633;DHT22;21754;48.216;-1.628;2022-07-29T14:37:06;32.90;71.30
35633;DHT22;21754;48.216;-1.628;2022-07-29T14:39:32;32.90;70.50
35633;DHT22;21754;48.216;-1.628;2022-07-29T14:41:58;33.00;74.80
35633;DHT22;21754;48.216;-1.628;2022-07-29T14:44:24;33.20;75.00
35633;DHT22;21754;48.216;-1.628;2022-07-29T14:46:54;33.30;74.40
35633;DHT22;21754;48.216;-1.628;2022-07-29T14:49:20;33.40;68.70
35633;DHT22;21754;48.216;-1.628;2022-07-29T14:51:45;33.40;72.30
35633;DHT22;21754;48.216;-1.628;2022-07-29T14:54:11;33.60;73.40
35633;DHT22;21754;48.216;-1.628;2022-07-29T14:56:36;33.80;74.10
35633;DHT22;21754;48.216;-1.628;2022-07-29T14:59:02;33.90;70.00
35633;DHT22;21754;48.216;-1.628;2022-07-29T15:01:27;33.90;70.10
35633;DHT22;21754;48.216;-1.628;2022-07-29T15:03:54;33.90;71.00
35633;DHT22;21754;48.216;-1.628;2022-07-29T15:06:20;33.90;68.90
35633;DHT22;21754;48.216;-1.628;2022-07-29T15:08:45;33.90;66.00
35633;DHT22;21754;48.216;-1.628;2022-07-29T15:11:11;33.80;65.20
35633;DHT22;21754;48.216;-1.628;2022-07-29T15:13:36;33.80;66.50
35633;DHT22;21754;48.216;-1.628;2022-07-29T15:16:02;33.80;65.40
35633;DHT22;21754;48.216;-1.628;2022-07-29T15:18:29;33.80;68.30
35633;DHT22;21754;48.216;-1.628;2022-07-29T15:20:55;33.80;67.50
35633;DHT22;21754;48.216;-1.628;2022-07-29T15:23:21;33.80;68.20
35633;DHT22;21754;48.216;-1.628;2022-07-29T15:25:46;33.80;67.10
35633;DHT22;21754;48.216;-1.628;2022-07-29T15:28:12;33.70;68.50
35633;DHT22;21754;48.216;-1.628;2022-07-29T15:30:38;33.70;67.60
35633;DHT22;21754;48.216;-1.628;2022-07-29T15:33:07;33.60;66.40
35633;DHT22;21754;48.216;-1.628;2022-07-29T15:35:35;33.50;65.70
35633;DHT22;21754;48.216;-1.628;2022-07-29T15:38:00;33.50;67.80
35633;DHT22;21754;48.216;-1.628;2022-07-29T15:40:27;33.40;68.60
35633;DHT22;21754;48.216;-1.628;2022-07-29T15:42:52;33.40;67.10
35633;DHT22;21754;48.216;-1.628;2022-07-29T15:45:18;33.40;68.60
35633;DHT22;21754;48.216;-1.628;2022-07-29T15:47:44;33.50;68.20
35633;DHT22;21754;48.216;-1.628;2022-07-29T15:50:09;33.50;68.30
35633;DHT22;21754;48.216;-1.628;2022-07-29T15:52:40;33.50;66.00
35633;DHT22;21754;48.216;-1.628;2022-07-29T15:55:06;33.40;65.50
35633;DHT22;21754;48.216;-1.628;2022-07-29T15:57:32;33.30;63.60
35633;DHT22;21754;48.216;-1.628;2022-07-29T15:59:58;33.30;64.60
35633;DHT22;21754;48.216;-1.628;2022-07-29T16:02:24;33.20;64.40
35633;DHT22;21754;48.216;-1.628;2022-07-29T16:04:49;33.10;62.90
35633;DHT22;21754;48.216;-1.628;2022-07-29T16:07:16;33.00;63.50
35633;DHT22;21754;48.216;-1.628;2022-07-29T16:09:42;32.90;64.50
35633;DHT22;21754;48.216;-1.628;2022-07-29T16:12:08;32.80;63.50
35633;DHT22;21754;48.216;-1.628;2022-07-29T16:14:34;32.50;64.60
35633;DHT22;21754;48.216;-1.628;2022-07-29T16:17:00;32.00;66.70
35633;DHT22;21754;48.216;-1.628;2022-07-29T16:19:31;31.50;67.90
35633;DHT22;21754;48.216;-1.628;2022-07-29T16:21:56;31.00;70.10
35633;DHT22;21754;48.216;-1.628;2022-07-29T16:24:22;30.70;71.80
35633;DHT22;21754;48.216;-1.628;2022-07-29T16:26:49;30.50;73.60
35633;DHT22;21754;48.216;-1.628;2022-07-29T16:29:15;29.90;74.40
35633;DHT22;21754;48.216;-1.628;2022-07-29T16:31:42;29.80;76.00
35633;DHT22;21754;48.216;-1.628;2022-07-29T16:34:08;29.50;77.50
35633;DHT22;21754;48.216;-1.628;2022-07-29T16:36:33;29.50;78.50
35633;DHT22;21754;48.216;-1.628;2022-07-29T16:38:59;29.70;80.60